createdAt,value
2022-10-23T00:00:39.406Z,15.41
2022-10-23T00:01:44.175Z,15.44
2022-10-23T00:02:53.223Z,15.64
2022-10-23T00:04:01.645Z,15.55
2022-10-23T00:05:03.906Z,15.35
2022-10-23T00:06:06.212Z,15.40
2022-10-23T00:07:08.371Z,15.43
2022-10-23T00:08:10.465Z,15.48
2022-10-23T00:09:16.777Z,15.62
2022-10-23T00:10:19.511Z,15.48
2022-10-23T00:11:24.786Z,15.66
2022-10-23T00:12:28.231Z,15.52
2022-10-23T00:13:30.355Z,15.54
2022-10-23T00:14:32.465Z,15.55
2022-10-23T00:15:36.362Z,15.71
2022-10-23T00:16:38.529Z,15.56
2022-10-23T00:17:41.090Z,15.51
2022-10-23T00:18:43.833Z,15.52
2022-10-23T00:19:45.958Z,15.56
2022-10-23T00:20:48.078Z,15.57
2022-10-23T00:21:50.308Z,15.58
2022-10-23T00:22:52.503Z,15.61
2022-10-23T00:23:54.701Z,15.59
2022-10-23T00:24:56.850Z,15.57
2022-10-23T00:26:00.189Z,15.56
2022-10-23T00:27:02.399Z,15.56
2022-10-23T00:28:04.598Z,15.57
2022-10-23T00:29:07.536Z,15.55
2022-10-23T00:30:10.849Z,15.65
2022-10-23T00:31:13.813Z,15.51
2022-10-23T00:32:16.051Z,15.57
2022-10-23T00:33:18.655Z,15.62
2022-10-23T00:34:20.879Z,15.52
2022-10-23T00:35:23.013Z,15.56
2022-10-23T00:36:25.171Z,15.54
2022-10-23T00:37:27.402Z,15.49
2022-10-23T00:38:29.568Z,15.43
2022-10-23T00:39:31.726Z,15.41
2022-10-23T00:40:34.383Z,15.38
2022-10-23T00:41:36.537Z,15.42
2022-10-23T00:42:39.456Z,15.47
2022-10-23T00:44:05.845Z,15.80
2022-10-23T00:45:10.458Z,15.61
2022-10-23T00:46:12.556Z,15.35
2022-10-23T00:47:14.853Z,15.30
2022-10-23T00:48:18.092Z,15.36
2022-10-23T00:49:20.470Z,15.27
2022-10-23T00:50:25.426Z,15.40
2022-10-23T00:51:32.310Z,15.52
2022-10-23T00:52:40.164Z,15.55
2022-10-23T00:53:47.981Z,15.40
2022-10-23T00:54:52.602Z,15.35
2022-10-23T00:55:57.614Z,15.36
2022-10-23T00:57:02.181Z,15.62
2022-10-23T00:58:04.995Z,15.51
2022-10-23T00:59:07.266Z,15.37
2022-10-23T01:00:17.587Z,15.59
2022-10-23T01:01:22.502Z,15.40
2022-10-23T01:02:24.793Z,15.21
2022-10-23T01:03:28.542Z,15.35
2022-10-23T01:04:31.199Z,15.19
2022-10-23T01:06:55.069Z,15.08
2022-10-23T01:08:06.283Z,15.27
2022-10-23T01:09:27.029Z,14.95
2022-10-23T01:10:34.848Z,14.99
2022-10-23T01:11:48.592Z,15.22
2022-10-23T01:13:00.373Z,15.22
2022-10-23T01:14:15.759Z,15.25
2022-10-23T01:15:27.678Z,15.31
2022-10-23T01:17:05.359Z,15.43
2022-10-23T01:18:22.077Z,15.48
2022-10-23T01:19:35.007Z,15.16
2022-10-23T01:20:39.651Z,15.57
2022-10-23T01:22:05.170Z,15.14
2022-10-23T01:23:22.461Z,15.44
2022-10-23T01:24:57.910Z,15.49
2022-10-23T01:26:18.367Z,15.52
2022-10-23T01:27:36.152Z,15.51
2022-10-23T01:28:41.230Z,15.51
2022-10-23T01:30:03.491Z,15.57
2022-10-23T01:31:17.424Z,15.47
2022-10-23T01:32:35.152Z,15.56
2022-10-23T01:33:51.365Z,15.56
2022-10-23T01:35:18.957Z,15.32
2022-10-23T01:36:27.975Z,15.42
2022-10-23T01:37:39.985Z,15.55
2022-10-23T01:38:55.744Z,15.50
2022-10-23T01:40:03.689Z,15.51
2022-10-23T01:41:31.766Z,15.62
2022-10-23T01:42:45.018Z,15.61
2022-10-23T01:44:06.163Z,15.71
2022-10-23T01:45:40.890Z,15.66
2022-10-23T01:46:47.522Z,15.55
2022-10-23T01:47:50.989Z,15.54
2022-10-23T01:48:55.598Z,15.54
2022-10-23T01:49:58.780Z,15.40
2022-10-23T01:51:06.726Z,15.56
2022-10-23T01:52:13.739Z,15.51
2022-10-23T01:53:20.792Z,15.37
2022-10-23T01:54:29.388Z,15.55
2022-10-23T01:55:33.314Z,15.48
2022-10-23T01:56:43.174Z,15.57
2022-10-23T01:57:47.378Z,15.39
2022-10-23T01:58:53.403Z,15.52
2022-10-23T02:00:03.830Z,15.52
2022-10-23T02:01:07.693Z,15.45
2022-10-23T02:02:23.696Z,15.38
2022-10-23T02:03:30.143Z,15.37
2022-10-23T02:04:40.992Z,15.44
2022-10-23T02:05:43.133Z,15.52
2022-10-23T02:06:45.377Z,15.10
2022-10-23T02:07:47.981Z,15.09
2022-10-23T02:08:50.647Z,15.11
2022-10-23T02:09:53.048Z,15.08
2022-10-23T02:11:04.296Z,15.37
2022-10-23T02:12:33.050Z,15.40
2022-10-23T02:13:40.224Z,15.36
2022-10-23T02:15:02.651Z,15.36
2022-10-23T02:16:26.575Z,15.36
2022-10-23T02:17:45.365Z,15.29
2022-10-23T02:18:57.661Z,15.26
2022-10-23T02:20:27.811Z,15.34
2022-10-23T02:21:44.928Z,15.41
2022-10-23T02:23:08.849Z,15.37
2022-10-23T02:24:17.500Z,15.31
2022-10-23T02:25:30.634Z,15.28
2022-10-23T02:26:51.526Z,15.33
2022-10-23T02:27:55.162Z,15.35
2022-10-23T02:29:10.069Z,15.19
2022-10-23T02:30:17.651Z,15.08
2022-10-23T02:31:26.463Z,14.91
2022-10-23T02:32:29.169Z,14.91
2022-10-23T02:33:31.759Z,14.92
2022-10-23T02:34:34.109Z,14.90
2022-10-23T02:35:36.298Z,14.82
2022-10-23T02:36:52.161Z,14.83
2022-10-23T02:37:58.756Z,14.99
2022-10-23T02:39:02.617Z,14.76
2022-10-23T02:40:05.596Z,14.81
2022-10-23T02:41:30.618Z,15.13
2022-10-23T02:43:13.202Z,15.03
2022-10-23T02:44:53.835Z,15.00
2022-10-23T02:46:06.650Z,14.80
2022-10-23T02:47:24.431Z,14.49
2022-10-23T02:48:43.102Z,14.80
2022-10-23T02:50:00.286Z,14.48
2022-10-23T02:51:18.147Z,14.90
2022-10-23T02:52:35.632Z,14.55
2022-10-23T02:53:44.402Z,14.55
2022-10-23T02:54:58.212Z,14.55
2022-10-23T02:56:20.909Z,14.81
2022-10-23T02:57:32.868Z,14.81
2022-10-23T02:58:49.264Z,14.79
2022-10-23T02:59:57.969Z,14.76
2022-10-23T03:01:08.006Z,14.69
2022-10-23T03:02:10.290Z,14.44
2022-10-23T03:03:17.256Z,14.63
2022-10-23T03:04:23.668Z,14.58
2022-10-23T03:05:34.286Z,14.57
2022-10-23T03:06:36.885Z,14.20
2022-10-23T03:07:40.689Z,14.32
2022-10-23T03:08:53.131Z,14.44
2022-10-23T03:09:55.269Z,14.19
2022-10-23T03:10:57.563Z,14.18
2022-10-23T03:12:03.511Z,14.18
2022-10-23T03:13:10.741Z,14.34
2022-10-23T03:14:17.521Z,14.13
2022-10-23T03:15:20.389Z,14.12
2022-10-23T03:16:24.895Z,14.18
2022-10-23T03:17:29.534Z,14.20
2022-10-23T03:18:34.079Z,14.18
2022-10-23T03:19:37.677Z,14.25
2022-10-23T03:20:40.503Z,14.19
2022-10-23T03:21:42.636Z,14.19
2022-10-23T03:22:45.655Z,14.26
2022-10-23T03:23:48.371Z,14.31
2022-10-23T03:24:53.494Z,14.27
2022-10-23T03:25:56.545Z,14.27
2022-10-23T03:27:18.907Z,14.21
2022-10-23T03:28:21.050Z,14.22
2022-10-23T03:29:23.575Z,14.23
2022-10-23T03:30:25.783Z,14.19
2022-10-23T03:31:30.098Z,14.15
2022-10-23T03:32:34.595Z,14.14
2022-10-23T03:33:36.772Z,14.12
2022-10-23T03:34:44.443Z,14.14
2022-10-23T03:36:55.769Z,14.16
2022-10-23T03:37:57.900Z,14.18
2022-10-23T03:39:01.471Z,14.17
2022-10-23T03:40:04.767Z,14.36
2022-10-23T03:41:09.895Z,14.30
2022-10-23T03:42:12.081Z,14.30
2022-10-23T03:43:14.483Z,14.33
2022-10-23T03:44:17.146Z,14.34
2022-10-23T03:45:20.657Z,14.36
2022-10-23T03:46:24.354Z,14.38
2022-10-23T03:47:30.487Z,14.32
2022-10-23T03:48:33.277Z,14.33
2022-10-23T03:49:35.639Z,14.35
2022-10-23T03:50:41.399Z,14.37
2022-10-23T03:51:47.064Z,14.47
2022-10-23T03:52:49.263Z,14.39
2022-10-23T03:53:51.399Z,14.44
2022-10-23T03:54:53.542Z,14.46
2022-10-23T03:55:55.767Z,14.47
2022-10-23T03:56:57.991Z,14.50
2022-10-23T03:58:01.469Z,14.58
2022-10-23T03:59:04.258Z,14.65
2022-10-23T04:00:07.290Z,14.70
2022-10-23T04:01:18.510Z,14.70
2022-10-23T04:02:21.717Z,14.67
2022-10-23T04:03:24.197Z,14.68
2022-10-23T04:04:27.223Z,14.67
2022-10-23T04:05:29.375Z,14.72
2022-10-23T04:06:34.074Z,14.71
2022-10-23T04:07:37.127Z,14.84
2022-10-23T04:08:39.348Z,14.73
2022-10-23T04:09:48.351Z,14.76
2022-10-23T04:10:51.830Z,14.70
2022-10-23T04:11:59.076Z,14.73
2022-10-23T04:13:03.398Z,14.77
2022-10-23T04:14:14.283Z,15.15
2022-10-23T04:15:16.664Z,14.78
2022-10-23T04:16:21.316Z,14.78
2022-10-23T04:17:23.474Z,14.80
2022-10-23T04:18:25.705Z,14.80
2022-10-23T04:19:27.891Z,14.75
2022-10-23T04:20:32.410Z,14.78
2022-10-23T04:21:37.569Z,14.71
2022-10-23T04:22:39.698Z,14.70
2022-10-23T04:23:42.223Z,14.79
2022-10-23T04:24:49.881Z,14.79
2022-10-23T04:25:56.876Z,15.00
2022-10-23T04:27:00.588Z,14.70
2022-10-23T04:28:04.879Z,14.61
2022-10-23T04:29:12.065Z,14.63
2022-10-23T04:30:14.459Z,14.60
2022-10-23T04:31:16.697Z,14.55
2022-10-23T04:32:19.091Z,14.54
2022-10-23T04:33:21.375Z,14.57
2022-10-23T04:34:25.788Z,14.51
2022-10-23T04:35:29.677Z,14.47
2022-10-23T04:36:31.998Z,14.42
2022-10-23T04:37:40.355Z,14.43
2022-10-23T04:38:42.666Z,14.45
2022-10-23T04:39:45.265Z,14.40
2022-10-23T04:40:49.129Z,14.39
2022-10-23T04:41:55.694Z,14.41
2022-10-23T04:43:00.542Z,14.41
2022-10-23T04:44:07.032Z,14.42
2022-10-23T04:45:12.839Z,14.45
2022-10-23T04:46:16.803Z,14.49
2022-10-23T04:47:22.321Z,14.50
2022-10-23T04:48:33.068Z,14.90
2022-10-23T04:50:10.235Z,14.52
2022-10-23T04:51:30.720Z,14.46
2022-10-23T04:52:45.969Z,14.45
2022-10-23T04:54:09.464Z,14.43
2022-10-23T04:55:28.373Z,14.37
2022-10-23T04:56:53.747Z,14.42
2022-10-23T04:57:56.965Z,14.42
2022-10-23T04:59:00.839Z,14.41
2022-10-23T05:00:10.901Z,14.66
2022-10-23T05:01:24.245Z,14.40
2022-10-23T05:02:27.701Z,14.36
2022-10-23T05:03:30.006Z,14.32
2022-10-23T05:04:32.327Z,14.28
2022-10-23T05:05:55.448Z,14.44
2022-10-23T05:07:17.811Z,14.22
2022-10-23T05:08:38.683Z,14.66
2022-10-23T05:09:56.153Z,14.20
2022-10-23T05:11:03.819Z,14.21
2022-10-23T05:12:10.043Z,14.17
2022-10-23T05:13:12.205Z,14.17
2022-10-23T05:14:19.218Z,14.16
2022-10-23T05:15:22.663Z,14.22
2022-10-23T05:16:36.990Z,14.64
2022-10-23T05:17:43.248Z,14.52
2022-10-23T05:18:47.464Z,14.48
2022-10-23T05:19:53.486Z,14.52
2022-10-23T05:21:21.851Z,14.67
2022-10-23T05:22:29.897Z,14.52
2022-10-23T05:23:34.562Z,14.45
2022-10-23T05:24:38.733Z,14.26
2022-10-23T05:25:40.952Z,14.26
2022-10-23T05:26:53.101Z,14.33
2022-10-23T05:27:56.052Z,14.24
2022-10-23T05:28:58.317Z,14.23
2022-10-23T05:30:00.524Z,14.21
2022-10-23T05:31:06.318Z,14.33
2022-10-23T05:32:14.514Z,14.35
2022-10-23T05:33:18.159Z,14.17
2022-10-23T05:34:25.524Z,14.38
2022-10-23T05:35:29.563Z,14.39
2022-10-23T05:36:31.902Z,14.17
2022-10-23T05:37:38.418Z,14.40
2022-10-23T05:38:45.822Z,14.28
2022-10-23T05:39:52.991Z,14.27
2022-10-23T05:40:55.247Z,14.30
2022-10-23T05:41:58.543Z,14.31
2022-10-23T05:43:00.939Z,14.29
2022-10-23T05:44:29.191Z,14.34
2022-10-23T05:45:50.047Z,14.39
2022-10-23T05:47:05.269Z,14.43
2022-10-23T05:48:46.038Z,14.48
2022-10-23T05:50:02.104Z,14.38
2022-10-23T05:51:29.422Z,14.45
2022-10-23T05:52:36.607Z,14.41
2022-10-23T05:53:57.284Z,14.39
2022-10-23T05:55:11.451Z,14.38
2022-10-23T05:56:22.663Z,14.42
2022-10-23T05:57:37.115Z,14.38
2022-10-23T05:58:43.007Z,14.48
2022-10-23T06:00:06.541Z,14.46
2022-10-23T06:01:18.513Z,14.41
2022-10-23T06:02:30.769Z,14.41
2022-10-23T06:03:41.159Z,14.44
2022-10-23T06:04:46.084Z,14.40
2022-10-23T06:06:11.546Z,14.38
2022-10-23T06:07:23.659Z,14.66
2022-10-23T06:08:26.274Z,14.42
2022-10-23T06:09:28.849Z,14.39
2022-10-23T06:10:33.248Z,14.40
2022-10-23T06:11:39.386Z,14.39
2022-10-23T06:12:47.093Z,14.40
2022-10-23T06:13:52.144Z,14.44
2022-10-23T06:14:56.051Z,14.43
2022-10-23T06:16:31.138Z,14.77
2022-10-23T06:17:33.373Z,14.44
2022-10-23T06:18:36.004Z,14.42
2022-10-23T06:19:46.139Z,14.48
2022-10-23T06:20:51.258Z,14.41
2022-10-23T06:21:59.873Z,14.44
2022-10-23T06:23:15.591Z,14.45
2022-10-23T06:24:40.631Z,14.39
2022-10-23T06:25:56.809Z,14.71
2022-10-23T06:27:07.439Z,14.37
2022-10-23T06:28:18.264Z,14.44
2022-10-23T06:29:22.532Z,14.46
2022-10-23T06:30:25.869Z,14.47
2022-10-23T06:31:28.536Z,14.52
2022-10-23T06:32:32.803Z,14.52
2022-10-23T06:33:45.384Z,14.63
2022-10-23T06:34:47.943Z,14.60
2022-10-23T06:35:50.106Z,14.59
2022-10-23T06:36:52.428Z,14.61
2022-10-23T06:38:12.495Z,14.67
2022-10-23T06:39:22.144Z,14.70
2022-10-23T06:40:47.002Z,14.79
2022-10-23T06:41:56.592Z,14.82
2022-10-23T06:43:24.990Z,14.87
2022-10-23T06:44:45.675Z,14.86
2022-10-23T06:45:52.408Z,14.84
2022-10-23T06:48:43.346Z,14.83
2022-10-23T06:49:51.948Z,14.86
2022-10-23T06:50:55.750Z,14.90
2022-10-23T06:52:14.392Z,14.96
2022-10-23T06:53:25.583Z,14.99
2022-10-23T06:54:37.908Z,15.05
2022-10-23T06:55:50.220Z,15.07
2022-10-23T06:56:55.178Z,15.11
2022-10-23T06:58:10.331Z,15.11
2022-10-23T06:59:22.684Z,15.15
2022-10-23T07:00:26.938Z,15.14
2022-10-23T07:01:29.898Z,15.13
2022-10-23T07:02:32.266Z,15.13
2022-10-23T07:03:35.212Z,15.23
2022-10-23T07:04:41.210Z,15.21
2022-10-23T07:05:49.350Z,15.26
2022-10-23T07:06:51.610Z,15.28
2022-10-23T07:07:59.894Z,15.32
2022-10-23T07:09:06.892Z,15.41
2022-10-23T07:10:28.961Z,15.44
2022-10-23T07:11:36.861Z,15.50
2022-10-23T07:12:38.967Z,15.60
2022-10-23T07:14:01.210Z,15.72
2022-10-23T07:15:20.438Z,16.06
2022-10-23T07:16:25.080Z,15.85
2022-10-23T07:17:28.792Z,16.08
2022-10-23T07:18:31.148Z,15.96
2022-10-23T07:20:02.427Z,16.03
2022-10-23T07:21:05.037Z,16.13
2022-10-23T07:22:09.725Z,16.16
2022-10-23T07:23:26.870Z,16.33
2022-10-23T07:24:31.390Z,16.31
2022-10-23T07:25:35.168Z,16.34
2022-10-23T07:26:38.046Z,16.31
2022-10-23T07:27:50.337Z,16.69
2022-10-23T07:28:55.516Z,16.53
2022-10-23T07:30:00.198Z,16.44
2022-10-23T07:31:06.176Z,16.45
2022-10-23T07:32:46.501Z,16.46
2022-10-23T07:34:07.397Z,16.33
2022-10-23T07:35:12.083Z,16.45
2022-10-23T07:36:18.313Z,16.43
2022-10-23T07:37:20.484Z,16.37
2022-10-23T07:38:42.000Z,16.41
2022-10-23T07:39:44.685Z,16.14
2022-10-23T07:40:46.825Z,16.20
2022-10-23T07:41:51.665Z,16.29
2022-10-23T07:42:54.250Z,16.26
2022-10-23T07:43:56.438Z,16.22
2022-10-23T07:44:58.655Z,16.26
2022-10-23T07:46:01.652Z,16.38
2022-10-23T07:47:09.647Z,16.32
2022-10-23T07:48:14.132Z,16.33
2022-10-23T07:49:36.505Z,16.44
2022-10-23T07:50:38.991Z,16.41
2022-10-23T07:51:41.395Z,16.38
2022-10-23T07:52:44.137Z,16.38
2022-10-23T07:54:06.567Z,16.65
2022-10-23T07:55:44.330Z,16.37
2022-10-23T07:56:49.694Z,16.32
2022-10-23T07:57:55.392Z,16.34
2022-10-23T07:59:07.461Z,16.24
2022-10-23T08:00:11.519Z,16.33
2022-10-23T08:01:19.586Z,16.53
2022-10-23T08:02:22.240Z,16.30
2022-10-23T08:03:26.570Z,16.45
2022-10-23T08:04:29.314Z,16.35
2022-10-23T08:05:35.489Z,16.41
2022-10-23T08:06:39.522Z,16.36
2022-10-23T08:07:42.097Z,16.37
2022-10-23T08:09:47.850Z,16.41
2022-10-23T08:10:51.747Z,16.64
2022-10-23T08:12:01.750Z,16.43
2022-10-23T08:13:04.443Z,16.42
2022-10-23T08:14:24.848Z,16.39
2022-10-23T08:15:27.054Z,16.43
2022-10-23T08:16:38.327Z,16.78
2022-10-23T08:17:52.279Z,16.68
2022-10-23T08:18:59.218Z,16.54
2022-10-23T08:20:01.433Z,16.63
2022-10-23T08:21:10.082Z,16.82
2022-10-23T08:22:13.140Z,16.90
2022-10-23T08:23:18.436Z,17.03
2022-10-23T08:24:20.732Z,16.94
2022-10-23T08:25:25.219Z,16.93
2022-10-23T08:26:32.230Z,17.01
2022-10-23T08:27:34.457Z,17.07
2022-10-23T08:28:37.132Z,17.24
2022-10-23T08:29:39.634Z,17.21
2022-10-23T08:30:42.989Z,17.04
2022-10-23T08:31:45.651Z,17.06
2022-10-23T08:32:47.957Z,17.07
2022-10-23T08:33:50.820Z,16.92
2022-10-23T08:34:53.026Z,16.93
2022-10-23T08:35:59.427Z,17.08
2022-10-23T08:37:07.925Z,17.00
2022-10-23T08:38:10.537Z,17.11
2022-10-23T08:39:18.822Z,17.11
2022-10-23T08:40:38.430Z,17.16
2022-10-23T08:42:26.288Z,17.60
2022-10-23T08:43:42.797Z,17.70
2022-10-23T08:45:12.858Z,17.82
2022-10-23T08:46:19.196Z,17.76
2022-10-23T08:47:44.760Z,17.87
2022-10-23T08:48:54.841Z,17.89
2022-10-23T08:50:54.464Z,18.00
2022-10-23T08:51:58.922Z,17.93
2022-10-23T08:53:07.186Z,18.06
2022-10-23T08:54:19.749Z,18.13
2022-10-23T08:55:29.809Z,18.16
2022-10-23T08:56:35.916Z,18.10
2022-10-23T08:57:43.872Z,18.26
2022-10-23T08:58:58.869Z,18.49
2022-10-23T09:00:07.172Z,18.38
2022-10-23T09:01:36.202Z,18.52
2022-10-23T09:02:40.595Z,18.21
2022-10-23T09:03:43.766Z,18.31
2022-10-23T09:04:49.089Z,18.53
2022-10-23T09:06:08.810Z,18.63
2022-10-23T09:07:54.582Z,18.69
2022-10-23T09:09:10.385Z,18.64
2022-10-23T09:10:41.032Z,18.82
2022-10-23T09:12:05.014Z,18.86
2022-10-23T09:13:31.907Z,19.14
2022-10-23T09:14:51.975Z,18.79
2022-10-23T09:16:16.215Z,19.18
2022-10-23T09:17:29.499Z,19.28
2022-10-23T09:18:31.645Z,19.05
2022-10-23T09:19:33.759Z,19.15
2022-10-23T09:20:36.364Z,19.19
2022-10-23T09:21:38.512Z,19.16
2022-10-23T09:22:42.009Z,19.32
2022-10-23T09:23:44.178Z,19.30
2022-10-23T09:24:47.652Z,19.45
2022-10-23T09:25:57.006Z,19.63
2022-10-23T09:27:00.634Z,19.63
2022-10-23T09:28:05.485Z,19.60
2022-10-23T09:29:23.875Z,20.12
2022-10-23T09:30:38.710Z,20.24
2022-10-23T09:31:52.296Z,20.30
2022-10-23T09:32:54.513Z,20.12
2022-10-23T09:34:01.790Z,20.48
2022-10-23T09:35:04.906Z,20.33
2022-10-23T09:36:18.454Z,20.37
2022-10-23T09:37:22.321Z,20.42
2022-10-23T09:38:33.522Z,20.63
2022-10-23T09:39:36.623Z,20.52
2022-10-23T09:40:43.314Z,20.72
2022-10-23T09:41:45.800Z,20.65
2022-10-23T09:43:13.806Z,21.19
2022-10-23T09:44:23.247Z,21.09
2022-10-23T09:45:29.276Z,21.55
2022-10-23T09:46:40.318Z,21.80
2022-10-23T09:47:42.667Z,21.49
2022-10-23T09:48:45.204Z,21.72
2022-10-23T09:49:50.792Z,21.94
2022-10-23T09:51:25.249Z,21.82
2022-10-23T09:52:36.825Z,22.34
2022-10-23T09:53:48.364Z,22.32
2022-10-23T09:54:56.930Z,22.38
2022-10-23T09:56:02.757Z,22.31
2022-10-23T09:57:27.384Z,22.27
2022-10-23T09:58:34.256Z,22.01
2022-10-23T09:59:36.434Z,21.66
2022-10-23T10:00:49.188Z,22.02
2022-10-23T10:01:58.995Z,21.55
2022-10-23T10:03:25.201Z,21.37
2022-10-23T10:04:38.370Z,21.34
2022-10-23T10:05:42.263Z,21.38
2022-10-23T10:06:57.749Z,21.38
2022-10-23T10:08:21.478Z,21.26
2022-10-23T10:09:23.630Z,21.13
2022-10-23T10:10:35.304Z,21.41
2022-10-23T10:11:44.099Z,21.66
2022-10-23T10:13:01.426Z,21.82
2022-10-23T10:14:31.027Z,21.87
2022-10-23T10:15:50.883Z,22.19
2022-10-23T10:17:21.044Z,22.30
2022-10-23T10:18:42.524Z,22.31
2022-10-23T10:20:03.807Z,22.52
2022-10-23T10:21:25.140Z,22.68
2022-10-23T10:22:42.462Z,22.50
2022-10-23T10:24:01.838Z,22.87
2022-10-23T10:25:15.986Z,23.10
2022-10-23T10:26:24.326Z,23.13
2022-10-23T10:27:26.410Z,22.63
2022-10-23T10:28:31.815Z,22.82
2022-10-23T10:29:52.262Z,23.11
2022-10-23T10:31:08.923Z,22.74
2022-10-23T10:32:23.025Z,23.13
2022-10-23T10:33:37.263Z,23.00
2022-10-23T10:34:56.005Z,22.88
2022-10-23T10:36:09.342Z,23.05
2022-10-23T10:37:22.082Z,23.29
2022-10-23T10:38:50.171Z,23.30
2022-10-23T10:40:17.918Z,23.42
2022-10-23T10:41:35.568Z,23.29
2022-10-23T10:42:40.301Z,23.27
2022-10-23T10:43:54.685Z,23.70
2022-10-23T10:45:08.115Z,23.41
2022-10-23T10:46:42.395Z,23.47
2022-10-23T10:47:59.678Z,23.73
2022-10-23T10:49:15.147Z,23.80
2022-10-23T10:50:33.258Z,24.04
2022-10-23T10:52:27.550Z,24.26
2022-10-23T10:53:47.830Z,24.02
2022-10-23T10:55:14.891Z,24.39
2022-10-23T10:56:20.606Z,24.33
2022-10-23T10:57:39.803Z,24.71
2022-10-23T10:59:05.118Z,24.75
2022-10-23T11:00:17.899Z,24.60
2022-10-23T11:01:27.182Z,24.67
2022-10-23T11:02:41.351Z,24.83
2022-10-23T11:03:52.278Z,24.83
2022-10-23T11:05:03.221Z,24.21
2022-10-23T11:06:13.480Z,24.70
2022-10-23T11:07:22.417Z,24.33
2022-10-23T11:08:44.469Z,24.43
2022-10-23T11:10:00.232Z,24.29
2022-10-23T11:11:11.256Z,24.07
2022-10-23T11:12:28.120Z,24.37
2022-10-23T11:13:40.251Z,24.41
2022-10-23T11:14:43.093Z,23.96
2022-10-23T11:15:46.017Z,23.64
2022-10-23T11:16:51.479Z,23.47
2022-10-23T11:18:01.075Z,23.43
2022-10-23T11:19:13.964Z,23.28
2022-10-23T11:20:54.880Z,23.92
2022-10-23T11:22:01.458Z,23.64
2022-10-23T11:23:31.852Z,23.96
2022-10-23T11:24:45.355Z,23.89
2022-10-23T11:26:02.434Z,23.73
2022-10-23T11:27:22.502Z,23.74
2022-10-23T11:28:39.770Z,23.20
2022-10-23T11:30:08.574Z,23.25
2022-10-23T11:31:25.666Z,23.14
2022-10-23T11:33:02.347Z,23.55
2022-10-23T11:34:23.350Z,23.10
2022-10-23T11:35:43.904Z,23.50
2022-10-23T11:36:56.867Z,23.93
2022-10-23T11:38:09.263Z,23.76
2022-10-23T11:39:22.173Z,24.23
2022-10-23T11:40:25.566Z,24.31
2022-10-23T11:41:33.874Z,24.32
2022-10-23T11:42:38.768Z,24.92
2022-10-23T11:43:51.736Z,25.23
2022-10-23T11:44:53.869Z,25.17
2022-10-23T11:45:56.502Z,25.34
2022-10-23T11:47:26.533Z,25.18
2022-10-23T11:48:39.705Z,25.14
2022-10-23T11:49:41.824Z,24.45
2022-10-23T11:50:43.874Z,24.04
2022-10-23T11:51:46.467Z,23.90
2022-10-23T11:53:19.604Z,24.12
2022-10-23T11:54:24.752Z,24.04
2022-10-23T11:55:29.592Z,23.96
2022-10-23T11:56:34.056Z,23.87
2022-10-23T11:57:36.404Z,23.71
2022-10-23T11:58:58.652Z,23.98
2022-10-23T12:00:00.865Z,23.63
2022-10-23T12:01:17.771Z,23.98
2022-10-23T12:02:42.728Z,24.00
2022-10-23T12:03:59.190Z,23.87
2022-10-23T12:05:07.170Z,23.30
2022-10-23T12:06:24.713Z,23.71
2022-10-23T12:07:30.868Z,23.30
2022-10-23T12:08:37.998Z,23.33
2022-10-23T12:09:54.171Z,23.42
2022-10-23T12:10:56.475Z,23.30
2022-10-23T12:12:15.411Z,23.91
2022-10-23T12:13:31.079Z,23.56
2022-10-23T12:14:37.857Z,23.49
2022-10-23T12:15:55.994Z,23.55
2022-10-23T12:17:00.854Z,23.15
2022-10-23T12:18:15.144Z,23.33
2022-10-23T12:19:23.997Z,23.48
2022-10-23T12:20:47.226Z,23.30
2022-10-23T12:21:59.356Z,23.45
2022-10-23T12:23:20.201Z,23.18
2022-10-23T12:24:23.332Z,23.09
2022-10-23T12:25:34.137Z,23.24
2022-10-23T12:26:50.625Z,23.40
2022-10-23T12:28:05.013Z,23.38
2022-10-23T12:29:34.798Z,23.31
2022-10-23T12:31:01.055Z,23.11
2022-10-23T12:32:24.771Z,23.43
2022-10-23T12:33:41.360Z,23.42
2022-10-23T12:34:52.266Z,23.41
2022-10-23T12:36:22.570Z,23.22
2022-10-23T12:38:04.831Z,23.48
2022-10-23T12:39:25.504Z,23.63
2022-10-23T12:40:30.129Z,23.15
2022-10-23T12:41:34.720Z,23.21
2022-10-23T12:42:37.654Z,23.15
2022-10-23T12:43:42.415Z,23.21
2022-10-23T12:44:44.516Z,22.92
2022-10-23T12:45:46.986Z,22.98
2022-10-23T12:46:53.645Z,23.08
2022-10-23T12:47:56.334Z,22.73
2022-10-23T12:49:00.351Z,23.08
2022-10-23T12:50:02.481Z,22.85
2022-10-23T12:51:04.649Z,22.90
2022-10-23T12:52:16.730Z,22.79
2022-10-23T12:53:20.938Z,22.75
2022-10-23T12:54:23.078Z,22.64
2022-10-23T12:55:28.801Z,22.95
2022-10-23T12:56:36.922Z,22.94
2022-10-23T12:57:42.480Z,22.82
2022-10-23T12:59:00.550Z,22.98
2022-10-23T13:00:10.436Z,23.08
2022-10-23T13:01:27.111Z,22.57
2022-10-23T13:02:31.795Z,22.50
2022-10-23T13:03:35.041Z,22.44
2022-10-23T13:04:37.859Z,22.34
2022-10-23T13:05:40.122Z,22.27
2022-10-23T13:06:43.452Z,22.05
2022-10-23T13:07:48.270Z,22.30
2022-10-23T13:08:54.372Z,22.38
2022-10-23T13:10:05.945Z,22.50
2022-10-23T13:11:15.908Z,22.37
2022-10-23T13:12:35.384Z,22.54
2022-10-23T13:13:40.794Z,22.29
2022-10-23T13:15:06.116Z,22.71
2022-10-23T13:16:19.068Z,22.54
2022-10-23T13:17:21.241Z,22.19
2022-10-23T13:18:23.324Z,22.15
2022-10-23T13:19:27.330Z,22.08
2022-10-23T13:20:52.534Z,22.22
2022-10-23T13:21:54.907Z,22.13
2022-10-23T13:23:00.825Z,22.47
2022-10-23T13:24:03.459Z,22.06
2022-10-23T13:25:27.977Z,22.30
2022-10-23T13:26:32.701Z,22.10
2022-10-23T13:27:34.965Z,22.19
2022-10-23T13:28:44.884Z,22.62
2022-10-23T13:29:47.031Z,22.22
2022-10-23T13:31:12.601Z,22.74
2022-10-23T13:32:28.411Z,22.77
2022-10-23T13:33:39.561Z,22.72
2022-10-23T13:35:03.617Z,22.55
2022-10-23T13:36:14.619Z,22.19
2022-10-23T13:37:28.495Z,22.55
2022-10-23T13:38:36.718Z,22.21
2022-10-23T13:39:40.757Z,21.85
2022-10-23T13:40:42.946Z,21.80
2022-10-23T13:41:47.494Z,22.06
2022-10-23T13:42:54.200Z,22.25
2022-10-23T13:43:56.906Z,22.11
2022-10-23T13:44:59.651Z,21.73
2022-10-23T13:46:01.999Z,21.77
2022-10-23T13:47:05.340Z,21.99
2022-10-23T13:48:13.868Z,22.17
2022-10-23T13:49:16.251Z,21.95
2022-10-23T13:50:20.555Z,21.94
2022-10-23T13:51:27.400Z,22.25
2022-10-23T13:52:29.854Z,22.11
2022-10-23T13:53:32.048Z,22.08
2022-10-23T13:54:34.187Z,22.13
2022-10-23T13:55:39.087Z,22.25
2022-10-23T13:56:41.558Z,22.09
2022-10-23T13:57:43.938Z,21.99
2022-10-23T13:58:46.929Z,21.96
2022-10-23T13:59:49.039Z,21.67
2022-10-23T14:00:51.327Z,21.70
2022-10-23T14:01:53.694Z,21.82
2022-10-23T14:02:55.918Z,21.81
2022-10-23T14:03:59.638Z,21.91
2022-10-23T14:05:01.750Z,21.84
2022-10-23T14:06:03.912Z,21.69
2022-10-23T14:07:06.026Z,21.83
2022-10-23T14:08:08.227Z,21.85
2022-10-23T14:09:15.943Z,22.17
2022-10-23T14:10:18.091Z,21.80
2022-10-23T14:11:20.966Z,21.66
2022-10-23T14:12:23.090Z,21.64
2022-10-23T14:13:25.264Z,21.71
2022-10-23T14:14:27.381Z,21.44
2022-10-23T14:15:29.498Z,21.58
2022-10-23T14:16:31.694Z,21.58
2022-10-23T14:17:35.143Z,21.62
2022-10-23T14:18:37.246Z,21.62
2022-10-23T14:19:39.382Z,21.61
2022-10-23T14:20:41.488Z,21.61
2022-10-23T14:21:43.641Z,21.56
2022-10-23T14:22:46.020Z,21.43
2022-10-23T14:23:49.790Z,21.73
2022-10-23T14:24:52.012Z,21.54
2022-10-23T14:25:54.141Z,21.44
2022-10-23T14:26:57.634Z,21.37
2022-10-23T14:28:01.972Z,21.20
2022-10-23T14:29:08.958Z,21.26
2022-10-23T14:30:17.666Z,21.46
2022-10-23T14:31:20.298Z,21.31
2022-10-23T14:32:22.482Z,21.29
2022-10-23T14:33:24.719Z,21.39
2022-10-23T14:34:26.849Z,21.29
2022-10-23T14:35:29.213Z,21.32
2022-10-23T14:36:38.841Z,21.42
2022-10-23T14:37:52.056Z,21.35
2022-10-23T14:38:59.406Z,21.60
2022-10-23T14:40:01.604Z,21.34
2022-10-23T14:41:10.491Z,21.61
2022-10-23T14:42:13.430Z,21.55
2022-10-23T14:43:15.603Z,21.51
2022-10-23T14:44:17.703Z,21.24
2022-10-23T14:45:19.896Z,21.28
2022-10-23T14:46:24.310Z,21.29
2022-10-23T14:47:26.498Z,21.12
2022-10-23T14:48:28.598Z,21.06
2022-10-23T14:49:31.314Z,20.87
2022-10-23T14:50:36.273Z,20.99
2022-10-23T14:51:38.469Z,20.69
2022-10-23T14:52:40.580Z,20.86
2022-10-23T14:53:42.743Z,21.02
2022-10-23T14:54:44.908Z,20.87
2022-10-23T14:55:47.017Z,20.93
2022-10-23T14:56:49.133Z,20.81
2022-10-23T14:57:55.450Z,21.26
2022-10-23T14:59:04.245Z,21.27
2022-10-23T15:00:07.393Z,21.31